Threlkel, Kentucky
Current Conditions -  °F | °C
As of 12:30 AM on Monday 24 Nov 2014 (Local Time) from KBWG Reporting Station
Overcast Overcast  
Wind Chill: 62°   Ceiling: 3700
Heat Index: 62°   Visibility: 10mi
Dew Point: 56°   Wind: 15mph
Humidity: 80%   Direction: 190°S
Pressure: 29.44"   Gusts: NA
Location:  37.2302°N, 86.4364°W
Report Text: KBWG 240630Z AUTO 19013KT 10SM SCT025 BKN037 OVC065 17/13 A2944 RMK AO2 T01670133
Loading
Personal Weather Stations






























Interactive Weather Map New forecast layout! Learn more

10-Day Weather Forecast

Advertisements
Track Severe Weather on mobile